x

8447387 - Borden Flats Light At Fall River, Ma (bltm3) Weather Station

3:54 - Thu 21st Sep 2017 All times are EDT. -4 hours from GMT.

  • Wind
    29mph, 37mph gusts
  • Aire Temp 71°f
  • Sea Pressure 1008.8mb
  • 8447387 - Borden Flats Light At Fall River, Ma
  • 8447387 - Borden Flats Light At Fall River, Ma

More Historic Weather Station data

Upgrade to MSW Pro to gain access to the past 30 days of data for over 8000 Wavebouys and Weather Stations around the globe.

Join

Comparision Forecast

View Surf forecast
   
jue 09/21 3:54 29 37 mph 1008.8mb 71f
3:48 28 38 mph 1008.8mb 71f
3:42 29 37 mph 1008.7mb 71f
3:36 26 38 mph 1008.8mb 71f
3:30 29 40 mph 1008.8mb 71f
3:24 25 45 mph 1008.7mb 71f
3:18 26 41 mph 1008.7mb 71f
3:12 29 38 mph 1008.7mb 71f
3:06 24 37 mph 1008.8mb 71f
3:00 32 47 mph 1008.6mb 71f
2:54 25 33 mph 1008.8mb 71f
2:48 25 36 mph 1008.7mb 71f
2:42 26 39 mph 1008.6mb 71f
2:36 25 37 mph 1008.7mb 71f
2:30 23 33 mph 1008.8mb 71f
2:24 26 38 mph 1008.8mb 71f
2:18 23 37 mph 1009mb 71f
2:12 23 31 mph 1009mb 71f
2:06 24 33 mph 1009.1mb 71f
2:00 25 39 mph 1009mb 71f
1:54 23 32 mph 1009mb 71f
1:48 25 38 mph 1009mb 71f
1:42 26 36 mph 1008.9mb 71f
1:36 24 34 mph 1009mb 71f
1:30 24 30 mph 1009.1mb 71f
1:24 23 34 mph 1009.2mb 72f
1:18 24 33 mph 1009.1mb 72f
1:12 25 33 mph 1009.1mb 72f
1:06 25 39 mph 1009.1mb 72f
1:00 25 32 mph 1009.1mb 72f
12:54 28 37 mph 1009mb 72f
12:48 26 40 mph 1009mb 72f
12:42 29 36 mph 1009mb 72f
12:36 22 31 mph 1009.1mb 72f
12:30 26 34 mph 1008.9mb 72f
12:24 28 36 mph 1008.8mb 72f
12:18 26 33 mph 1008.9mb 71f
12:12 22 30 mph 1008.9mb 71f
12:06 23 30 mph 1008.9mb 71f
12:00 21 30 mph 1009mb 71f
mié 09/20 11:54 24 33 mph 1008.9mb 71f
11:48 22 30 mph 1008.9mb 71f
11:42 22 29 mph 1008.9mb 71f
11:36 21 25 mph 1009mb 70f
11:30 20 25 mph 1009.1mb 70f
11:24 21 26 mph 1009mb 70f
11:18 22 28 mph 1009.1mb 70f
11:12 22 28 mph 1009mb 70f
11:06 23 32 mph 1009mb 70f
11:00 20 26 mph 1009.1mb 70f
10:54 20 24 mph 1009.1mb 70f
10:48 23 31 mph 1009.2mb 70f
10:42 22 29 mph 1009.2mb 70f
10:36 25 36 mph 1009.2mb 71f
10:30 22 31 mph 1009.2mb 71f
10:24 21 30 mph 1009.3mb 71f
10:18 23 36 mph 1009.2mb 71f
10:12 23 33 mph 1009.2mb 70f
10:06 22 33 mph 1009.2mb 70f
10:00 21 28 mph 1009.3mb 70f
9:54 22 31 mph 1009.3mb 70f
9:48 21 31 mph 1009.3mb 70f
9:42 21 28 mph 1009.3mb 70f
9:36 22 32 mph 1009.2mb 70f
9:30 21 29 mph 1009.1mb 71f
9:24 23 32 mph 1008.9mb 70f
9:18 21 26 mph 1008.9mb 70f
9:12 23 34 mph 1008.8mb 70f
9:06 17 22 mph 1008.9mb 70f
9:00 18 24 mph 1008.9mb 70f
8:54 22 29 mph 1008.8mb 70f
8:48 23 32 mph 1008.8mb 70f
8:42 22 30 mph 1008.9mb 70f
8:36 23 30 mph 1008.8mb 70f
8:30 22 31 mph 1008.8mb 70f
8:24 24 30 mph 1008.7mb 70f
8:18 21 28 mph 1009mb 70f
8:12 26 36 mph 1008.9mb 70f
8:06 24 33 mph 1009mb 70f
8:00 24 36 mph 1009mb 70f
7:54 22 30 mph 1009mb 70f
7:48 22 30 mph 1009mb 69f
7:42 24 33 mph 1008.9mb 69f
7:36 23 29 mph 1009mb 69f
7:30 22 31 mph 1009mb 69f
7:24 23 33 mph 1009mb 69f
7:18 28 40 mph 1008.9mb 69f
7:12 24 34 mph 1009mb 69f
7:06 24 37 mph 1009mb 69f
7:00 23 30 mph 1009mb 69f
6:54 24 30 mph 1008.9mb 69f
6:48 24 33 mph 1008.8mb 69f
6:42 25 32 mph 1008.8mb 69f
6:36 24 31 mph 1008.8mb 69f
6:30 25 33 mph 1008.7mb 68f
6:24 25 32 mph 1008.7mb 68f
6:18 22 34 mph 1008.7mb 68f
6:12 23 32 mph 1008.7mb 68f
6:06 22 31 mph 1008.6mb 68f
6:00 25 33 mph 1008.5mb 68f
5:54 23 33 mph 1008.5mb 68f
5:48 25 32 mph 1008.4mb 68f
5:42 22 28 mph 1008.4mb 68f
5:36 23 33 mph 1008.3mb 68f
5:30 28 37 mph 1008.1mb 68f
5:24 25 37 mph 1008.2mb 68f
5:18 26 38 mph 1008mb 68f
5:12 23 31 mph 1008.1mb 68f
5:06 23 36 mph 1008mb 68f
5:00 23 32 mph 1008mb 68f
4:54 21 28 mph 1008.1mb 69f
4:48 28 39 mph 1007.8mb 68f
4:42 22 26 mph 1008mb 69f
4:36 26 37 mph 1007.9mb 69f
4:30 25 39 mph 1007.8mb 69f
4:24 30 40 mph 1007.6mb 68f
4:18 24 34 mph 1007.7mb 68f
4:12 22 37 mph 1007.7mb 68f
4:06 23 34 mph 1007.7mb 68f
4:00 23 37 mph 1007.6mb 68f
3:54 22 37 mph 1007.7mb 68f
3:48 26 32 mph 1007.5mb 68f
3:42 21 30 mph 1007.7mb 68f
3:36 22 30 mph 1007.7mb 68f
3:30 22 32 mph 1007.7mb 68f
3:24 24 31 mph 1007.7mb 68f
3:18 24 30 mph 1007.6mb 68f
3:12 23 34 mph 1007.6mb 68f
3:06 22 30 mph 1007.6mb 68f
3:00 22 32 mph 1007.6mb 68f
2:54 25 33 mph 1007.6mb 68f
2:48 24 34 mph 1007.6mb 68f
2:42 21 29 mph 1007.7mb 68f
2:36 22 30 mph 1007.7mb 68f
2:30 24 34 mph 1007.7mb 68f
2:24 24 30 mph 1007.7mb 68f
2:18 22 36 mph 1007.7mb 68f
2:12 24 32 mph 1007.6mb 68f
2:06 25 36 mph 1007.5mb 68f
2:00 24 40 mph 1007.6mb 68f
1:54 23 32 mph 1007.6mb 68f
1:48 23 31 mph 1007.6mb 68f
1:42 22 30 mph 1007.7mb 68f
1:36 22 32 mph 1007.6mb 68f
1:30 22 29 mph 1007.6mb 68f
1:24 22 26 mph 1007.6mb 68f
1:18 25 33 mph 1007.4mb 68f
1:12 22 30 mph 1007.4mb 68f
1:06 23 28 mph 1007.3mb 68f
1:00 21 29 mph 1007.4mb 68f
12:54 25 37 mph 1007.4mb 68f
12:48 24 32 mph 1007.4mb 68f
12:42 23 30 mph 1007.5mb 68f
12:36 21 31 mph 1007.8mb 68f
12:30 22 29 mph 1007.8mb 68f
12:24 23 31 mph 1007.9mb 68f
12:18 22 34 mph 1008mb 68f
12:12 20 31 mph 1008mb 68f
12:06 21 31 mph 1008mb 68f
12:00 26 34 mph 1007.8mb 68f
11:54 23 30 mph 1007.9mb 68f
11:48 22 26 mph 1008mb 68f
11:42 23 31 mph 1008mb 68f
11:36 22 29 mph 1008mb 68f
11:30 22 29 mph 1008mb 68f
11:24 22 28 mph 1008mb 68f
11:18 20 30 mph 1008mb 68f
11:12 23 28 mph 1008mb 68f
11:06 22 30 mph 1007.9mb 68f
11:00 23 30 mph 1007.9mb 68f
10:54 22 29 mph 1008mb 68f
10:48 24 31 mph 1008.1mb 68f
10:42 21 26 mph 1008.2mb 68f
10:36 23 33 mph 1008.2mb 68f
10:30 24 34 mph 1008.2mb 68f
10:24 23 30 mph 1008.4mb 68f
10:18 23 28 mph 1008.5mb 68f
10:12 21 29 mph 1008.4mb 67f
10:06 20 25 mph 1008.5mb 68f
10:00 20 25 mph 1008.5mb 67f
9:54 21 25 mph 1008.5mb 67f
9:48 20 25 mph 1008.6mb 67f
9:42 23 29 mph 1008.6mb 67f
9:36 24 30 mph 1008.7mb 67f
9:30 22 30 mph 1008.8mb 67f
9:24 25 34 mph 1008.7mb 67f
9:18 25 32 mph 1008.7mb 67f
9:12 22 28 mph 1008.8mb 67f
9:06 23 31 mph 1008.7mb 67f
9:00 21 25 mph 1008.7mb 67f
8:54 21 29 mph 1008.7mb 66f
8:48 21 26 mph 1008.8mb 67f
8:42 25 30 mph 1008.6mb 66f
8:36 23 28 mph 1008.7mb 67f
8:30 20 24 mph 1008.8mb 67f
8:24 21 28 mph 1008.6mb 67f
8:18 22 29 mph 1008.7mb 66f
8:12 21 26 mph 1008.8mb 67f
8:06 21 25 mph 1008.7mb 67f
8:00 22 26 mph 1008.6mb 67f
7:54 21 26 mph 1008.6mb 67f
7:48 22 30 mph 1008.5mb 67f
7:42 21 28 mph 1008.6mb 67f
7:36 22 30 mph 1008.5mb 67f
7:30 22 29 mph 1008.6mb 67f
7:24 22 31 mph 1008.5mb 67f
7:18 21 29 mph 1008.6mb 67f
7:12 18 23 mph 1008.7mb 67f
7:06 20 25 mph 1008.6mb 67f
7:00 22 29 mph 1008.5mb 66f
6:54 22 29 mph 1008.4mb 66f
6:48 22 28 mph 1008.5mb 66f
6:42 21 28 mph 1008.5mb 66f
6:36 20 25 mph 1008.5mb 66f
6:30 22 31 mph 1008.5mb 66f
6:24 22 29 mph 1008.5mb 66f
6:18 21 25 mph 1008.5mb 66f
6:12 22 29 mph 1008.6mb 66f
6:06 22 29 mph 1008.6mb 66f
6:00 20 28 mph 1008.7mb 66f
5:54 18 24 mph 1008.6mb 66f
5:48 20 30 mph 1008.5mb 66f
5:42 22 30 mph 1008.3mb 66f
5:36 22 30 mph 1008.4mb 66f
5:30 21 29 mph 1008.4mb 66f
5:24 21 31 mph 1008.5mb 66f
5:18 20 25 mph 1008.7mb 66f
5:12 21 26 mph 1008.6mb 66f
5:06 22 29 mph 1008.5mb 66f
5:00 22 28 mph 1008.5mb 66f
4:54 22 28 mph 1008.4mb 66f
4:48 24 31 mph 1008.4mb 66f
4:42 24 32 mph 1008.4mb 66f
4:36 22 26 mph 1008.5mb 67f
4:30 22 31 mph 1008.6mb 67f
4:24 23 30 mph 1008.5mb 67f
4:18 21 26 mph 1008.5mb 67f
4:12 21 26 mph 1008.4mb 67f
4:06 20 24 mph 1008.6mb 67f
4:00 20 23 mph 1008.6mb 67f
3:54 21 26 mph 1008.7mb 67f
3:48 20 23 mph 1008.9mb 67f
3:42 18 25 mph 1009mb 67f
3:36 18 23 mph 1009mb 67f
3:30 22 26 mph 1009mb 66f
3:24 21 29 mph 1009.1mb 66f
3:18 21 28 mph 1009.1mb 66f
3:12 22 29 mph 1009.1mb 66f
3:06 21 29 mph 1009.3mb 66f
3:00 18 23 mph 1009.4mb 66f
2:54 20 28 mph 1009.5mb 66f
2:48 20 25 mph 1009.5mb -
2:42 20 25 mph 1009.4mb -
2:36 18 24 mph 1009.6mb -
2:30 20 23 mph 1009.7mb 67f
2:24 21 28 mph 1009.8mb 67f
2:18 21 25 mph 1009.8mb 67f
2:12 20 26 mph 1009.9mb 67f
2:06 21 28 mph 1009.9mb 66f
2:00 20 24 mph 1010mb 67f
1:54 18 23 mph 1010.2mb 67f
1:48 18 23 mph 1010.2mb -
1:42 18 24 mph 1010.3mb -
1:36 20 28 mph 1010.3mb -
1:30 21 28 mph 1010.4mb 67f
1:24 18 23 mph 1010.4mb 67f
1:18 17 21 mph 1010.5mb 67f
1:12 16 20 mph 1010.7mb 67f
1:06 17 22 mph 1010.6mb 67f
1:00 18 24 mph 1010.6mb 67f
12:54 18 22 mph 1010.7mb 67f
12:48 18 25 mph 1010.7mb 67f
12:42 17 22 mph 1010.9mb 67f
12:36 18 22 mph 1010.9mb 67f
12:30 18 22 mph 1010.9mb 67f
12:24 18 22 mph 1010.8mb 67f
12:18 20 24 mph 1010.8mb 67f
12:12 18 22 mph 1010.9mb 67f
12:06 18 23 mph 1011mb 67f
12:00 18 23 mph 1010.9mb 67f
mar 09/19 11:54 17 23 mph 1010.9mb 67f
11:48 17 22 mph 1011mb 67f
11:42 18 23 mph 1011.1mb 67f
11:36 20 23 mph 1011.1mb 67f
11:30 18 22 mph 1011.2mb 67f
11:24 20 26 mph 1011.2mb 67f
11:18 20 25 mph 1011.3mb 67f
11:12 21 26 mph 1011.3mb 67f
11:06 23 30 mph 1011.4mb 67f
11:00 21 26 mph 1011.5mb 67f
10:54 23 28 mph 1011.6mb 67f
10:48 22 29 mph 1011.7mb 67f
10:42 21 28 mph 1011.7mb 67f
10:36 20 23 mph 1011.8mb 67f
10:30 20 24 mph 1011.9mb 67f
10:24 21 25 mph 1011.8mb 67f
10:18 20 24 mph 1011.9mb 67f
10:12 18 23 mph 1011.9mb 67f
10:06 17 23 mph 1011.9mb 67f
10:00 18 24 mph 1011.9mb 67f
9:54 20 26 mph 1012mb 67f
9:48 21 24 mph 1012mb 67f
9:42 20 25 mph 1012.1mb 67f
9:36 22 26 mph 1012.1mb 67f
9:30 20 25 mph 1012.2mb 67f
9:24 20 23 mph 1012.3mb 68f
9:18 20 25 mph 1012.3mb 67f
9:12 21 25 mph 1012.3mb 67f
9:06 22 26 mph 1012.3mb 67f
9:00 22 26 mph 1012.4mb 67f
8:54 21 24 mph 1012.4mb 67f
8:48 22 32 mph 1012.3mb 67f
8:42 22 26 mph 1012.4mb 67f
8:36 21 28 mph 1012.4mb 68f
8:30 21 28 mph 1012.4mb 67f
8:24 21 28 mph 1012.3mb 67f
8:18 20 25 mph 1012.3mb 67f
8:12 20 25 mph 1012.2mb 67f
8:06 18 23 mph 1012.2mb 67f
8:00 16 22 mph 1012.2mb 67f
7:54 18 23 mph 1012.3mb 67f
7:48 20 23 mph 1012.3mb 67f
7:42 21 24 mph 1012.4mb 67f
7:36 21 25 mph 1012.3mb 67f
7:30 18 25 mph 1012.4mb 67f
7:24 18 24 mph 1012.4mb 67f
7:18 17 22 mph 1012.4mb 67f
7:12 17 24 mph 1012.5mb 67f
7:06 16 21 mph 1012.5mb 67f
7:00 18 24 mph 1012.5mb 67f
6:54 15 21 mph 1012.6mb 67f
6:48 18 23 mph 1012.6mb 67f
6:42 16 22 mph 1012.8mb 67f
6:36 17 23 mph 1012.8mb 67f
6:30 17 23 mph 1012.8mb 67f
6:24 17 24 mph 1012.8mb 67f
6:18 17 22 mph 1012.8mb 67f
6:12 17 21 mph 1013mb 67f
6:06 17 21 mph 1013.2mb 67f
6:00 16 22 mph 1013.2mb 67f
5:54 14 17 mph 1013.4mb 67f
5:48 14 17 mph 1013.3mb 67f
5:42 16 22 mph 1013.4mb 67f
5:36 17 22 mph 1013.4mb 67f
5:30 17 22 mph 1013.4mb 67f
5:24 18 22 mph 1013.3mb 67f
5:18 17 21 mph 1013.4mb 67f
5:12 21 25 mph 1013.4mb 67f
5:06 18 22 mph 1013.5mb 67f
5:00 20 23 mph 1013.5mb 67f
4:54 18 23 mph 1013.4mb 67f
4:48 22 26 mph 1013.3mb 67f
4:42 22 28 mph 1013.1mb 67f
4:36 22 29 mph 1013.1mb 67f
4:30 20 28 mph 1013.2mb 67f
4:24 20 25 mph 1013.2mb 67f
4:18 21 29 mph 1013.2mb 67f
4:12 22 28 mph 1013.3mb 67f
4:06 21 25 mph 1013.5mb 67f
4:00 18 24 mph 1013.6mb 67f
3:54 20 24 mph 1013.6mb 67f
3:48 18 23 mph 1013.8mb 67f
3:42 20 29 mph 1013.7mb 67f
3:36 21 24 mph 1013.6mb 67f
3:30 22 25 mph 1013.6mb 67f
3:24 23 29 mph 1013.7mb 67f
3:18 20 23 mph 1013.8mb 67f
3:12 21 29 mph 1013.8mb 67f
3:06 23 30 mph 1013.8mb 67f
3:00 24 32 mph 1013.8mb 67f
2:54 18 23 mph 1013.9mb 67f
2:48 18 22 mph 1014.1mb 67f
2:42 20 24 mph 1014.1mb 67f
2:36 17 21 mph 1014.2mb 67f
2:30 18 24 mph 1014.4mb 67f
2:24 22 28 mph 1014.4mb 67f
2:18 21 26 mph 1014.4mb 67f
2:12 21 26 mph 1014.5mb 67f
2:06 21 24 mph 1014.6mb 67f
2:00 23 28 mph 1014.7mb 67f
1:54 20 24 mph 1014.7mb 67f
1:48 21 28 mph 1014.7mb 67f
1:42 22 28 mph 1014.8mb 67f
1:36 22 28 mph 1014.9mb 67f
1:30 22 26 mph 1014.9mb 67f
1:24 22 30 mph 1015mb 67f
1:18 21 25 mph 1015.2mb 67f
1:12 18 23 mph 1015.4mb 68f
1:06 23 28 mph 1015.5mb 67f
1:00 23 30 mph 1015.6mb 68f
12:54 22 26 mph 1015.9mb 68f
12:48 20 23 mph 1016.4mb 68f
12:42 20 24 mph 1016.5mb 68f
12:36 22 25 mph 1016.6mb 68f
12:30 17 22 mph 1016.4mb 68f
12:24 22 28 mph 1016.1mb 68f
12:18 23 28 mph 1016.3mb 68f
12:12 20 25 mph 1016.2mb 68f
12:06 22 29 mph 1016.3mb 68f
12:00 22 28 mph 1016.1mb 68f
11:54 17 22 mph 1016.3mb 68f
11:48 20 24 mph 1016.3mb 68f
11:42 18 22 mph 1016.6mb 68f
11:36 17 21 mph 1016.9mb 68f
11:30 20 23 mph 1017mb 68f
11:24 17 21 mph 1017.2mb 68f
11:18 16 20 mph 1017.2mb 68f
11:12 16 21 mph 1017.2mb 68f
11:06 20 24 mph 1016.8mb 67f
11:00 20 22 mph 1016.8mb 68f
10:54 18 22 mph 1017mb 68f
10:48 17 21 mph 1017.1mb 68f
10:42 18 21 mph 1017mb 67f
10:36 17 22 mph 1017mb 67f
10:30 20 23 mph 1017mb 67f
10:24 17 22 mph 1016.9mb 67f
10:18 18 24 mph 1016.9mb 67f
10:12 20 23 mph 1016.9mb 67f
10:06 17 22 mph 1016.9mb 67f
10:00 20 25 mph 1016.9mb 67f
9:54 21 24 mph 1016.9mb 67f
9:48 17 23 mph 1017mb 67f
9:42 18 23 mph 1017.1mb 67f
9:36 17 21 mph 1017.2mb 67f
9:30 18 22 mph 1017.2mb 67f
9:24 20 26 mph 1017.3mb 67f
9:18 20 24 mph 1017.2mb 67f
9:12 20 23 mph 1017.1mb 67f
9:06 17 22 mph 1017.2mb 67f
9:00 18 22 mph 1017.2mb 67f
8:54 18 23 mph 1017.3mb 67f
8:48 20 23 mph 1017.2mb 67f
8:42 18 21 mph 1017.2mb 67f
8:36 17 22 mph 1017.3mb 67f
8:30 16 22 mph 1017.3mb 67f
8:24 17 23 mph 1017.3mb 67f
8:18 15 20 mph 1017.3mb 66f
8:12 17 23 mph 1017.3mb 67f
8:06 16 21 mph 1017.4mb 67f
8:00 16 22 mph 1017.5mb 67f
7:54 18 24 mph 1017.4mb 67f
7:48 17 22 mph 1017.4mb 67f
7:42 16 20 mph 1017.6mb 67f
7:36 16 18 mph 1017.6mb 67f
7:30 15 17 mph 1017.6mb 67f
7:24 14 18 mph 1017.7mb 67f
7:18 14 18 mph 1017.8mb 67f
7:12 17 21 mph 1017.7mb 67f
7:06 16 18 mph 1017.6mb 67f
7:00 16 20 mph 1017.7mb 67f
6:54 13 15 mph 1017.7mb 67f
6:48 15 18 mph 1017.8mb 67f
6:42 14 17 mph 1017.7mb 67f
6:36 14 17 mph 1017.7mb 67f
6:30 14 18 mph 1017.6mb 67f
6:24 14 20 mph 1017.5mb 67f
6:18 15 20 mph 1017.3mb 67f
6:12 15 17 mph 1017.4mb 67f
6:06 13 17 mph 1017.5mb 67f
6:00 15 20 mph 1017.4mb 66f
5:54 15 18 mph 1017.4mb 67f
5:48 15 20 mph 1017.3mb 67f
5:42 15 18 mph 1017.3mb 67f
5:36 16 22 mph 1017.3mb 67f
5:30 15 20 mph 1017.2mb 67f
5:24 14 22 mph 1017.3mb 66f
5:18 17 22 mph 1017.2mb 66f
5:12 18 22 mph 1017.3mb 66f
5:06 16 20 mph 1017.5mb 67f
5:00 16 20 mph 1017.5mb 67f
4:54 18 22 mph 1017.5mb 66f
4:48 16 20 mph 1017.5mb 67f
4:42 17 23 mph 1017.5mb 67f
4:36 16 20 mph 1017.6mb 67f
4:30 17 20 mph 1017.8mb 66f
4:24 18 22 mph 1017.8mb 66f
4:18 17 22 mph 1017.8mb 67f
4:12 16 18 mph 1017.9mb 67f
4:06 15 20 mph 1018mb 67f
4:00 15 18 mph 1018.2mb 66f
3:54 16 20 mph 1018.2mb 67f
3:48 15 20 mph 1018.2mb 67f
3:42 17 20 mph 1018.1mb 66f
3:36 15 20 mph 1018mb 67f
3:30 18 22 mph 1017.9mb 67f
3:24 15 17 mph 1018mb 67f
3:18 18 23 mph 1017.8mb 67f
3:12 16 20 mph 1017.9mb 67f
3:06 17 21 mph 1018mb 67f
3:00 17 21 mph 1018.1mb 67f
2:54 18 21 mph 1018.1mb 67f
2:48 17 20 mph 1018.1mb -
2:42 16 20 mph 1018mb -
2:36 15 18 mph 1018.1mb -
2:30 15 20 mph 1018.2mb 67f
2:24 17 21 mph 1018.2mb 67f
2:18 14 18 mph 1018.2mb 67f
2:12 14 16 mph 1018.4mb 67f
2:06 16 20 mph 1018.3mb 67f
2:00 17 21 mph 1018.3mb 67f
1:54 16 21 mph 1018.4mb 67f
1:48 15 18 mph 1018.4mb 67f
1:42 15 17 mph 1018.5mb 67f
1:36 14 18 mph 1018.6mb 67f
1:30 14 18 mph 1018.7mb 67f
1:24 14 16 mph 1018.8mb 67f
1:18 11 15 mph 1018.9mb 67f
1:12 11 14 mph 1019mb 67f
1:06 11 14 mph 1019mb 67f
1:00 15 17 mph 1019mb 67f
12:54 14 16 mph 1019mb 67f
12:48 14 18 mph 1019mb 67f
12:42 13 16 mph 1018.9mb 67f
12:36 14 16 mph 1019mb 67f
12:30 15 17 mph 1019mb 67f
12:24 16 20 mph 1018.9mb 67f
12:18 15 18 mph 1018.9mb 67f
12:12 16 20 mph 1019mb 67f
12:06 17 20 mph 1019.1mb 67f
12:00 16 21 mph 1019.2mb 67f
lun 09/18 11:54 16 20 mph 1019.2mb 67f
11:48 16 20 mph 1019.2mb 67f
11:42 16 20 mph 1019.3mb 67f
11:36 15 18 mph 1019.3mb 67f
11:30 16 21 mph 1019.4mb 67f
11:24 14 17 mph 1019.5mb 67f
11:18 15 18 mph 1019.5mb 67f
11:12 15 17 mph 1019.5mb 67f
11:06 16 18 mph 1019.5mb 67f
11:00 16 18 mph 1019.5mb 67f
10:54 16 20 mph 1019.5mb 67f
10:48 15 17 mph 1019.7mb 67f
10:42 15 17 mph 1019.6mb 67f
10:36 14 17 mph 1019.6mb 67f
10:30 17 22 mph 1019.6mb 67f
10:24 15 17 mph 1019.7mb 67f
10:18 15 20 mph 1019.7mb 67f
10:12 14 17 mph 1019.8mb 67f
10:06 15 17 mph 1019.6mb 67f
10:00 15 18 mph 1019.6mb 68f
9:54 13 15 mph 1019.8mb 68f
9:48 15 17 mph 1019.7mb 68f
9:42 14 16 mph 1019.6mb 68f
9:36 13 15 mph 1019.8mb 68f
9:30 13 15 mph 1019.8mb 68f
9:24 13 14 mph 1019.8mb 68f
9:18 11 14 mph 1019.9mb 68f
9:12 13 14 mph 1020mb 68f
9:06 11 15 mph 1020mb 68f
9:00 11 14 mph 1019.9mb 68f
8:54 14 16 mph 1019.9mb 68f
8:48 13 15 mph 1019.9mb 68f
8:42 13 15 mph 1019.9mb 68f
8:36 14 16 mph 1019.8mb 68f
8:30 13 16 mph 1019.8mb 68f
8:24 13 14 mph 1019.9mb 69f
8:18 13 15 mph 1019.9mb 69f
8:12 11 14 mph 1019.9mb 69f
8:06 10 14 mph 1019.9mb 69f
8:00 10 13 mph 1019.8mb 69f
7:54 11 14 mph 1019.8mb 69f
7:48 11 14 mph - -
7:42 10 13 mph - -
7:36 11 13 mph - -
7:30 10 14 mph 1019.5mb 69f
7:24 9 11 mph 1019.4mb 69f
7:18 10 11 mph 1019.3mb 69f
7:12 11 14 mph 1019.2mb 70f
7:06 11 14 mph 1019.2mb 69f
7:00 11 14 mph 1019.2mb 70f
6:54 10 13 mph 1019.3mb 70f
6:48 10 13 mph 1019.3mb 70f
6:42 11 14 mph 1019.2mb 70f
6:36 10 13 mph 1019.2mb 70f
6:30 10 13 mph 1019.3mb 70f
6:24 11 15 mph 1019.3mb 70f
6:18 11 14 mph 1019.3mb 70f
6:12 10 11 mph 1019.2mb 70f
6:06 10 14 mph 1019.3mb 70f
6:00 10 14 mph 1019.3mb 70f
5:54 9 10 mph 1019.4mb 71f
5:48 10 11 mph 1019.3mb 71f
5:42 10 14 mph 1019.2mb 71f
5:36 11 13 mph 1019.2mb 71f
5:30 10 13 mph 1019.1mb 71f
5:24 10 14 mph 1019.2mb 71f
5:18 10 13 mph 1019.2mb 71f
5:12 9 11 mph 1019.3mb 71f
5:06 13 14 mph 1019.3mb 71f
5:00 10 14 mph 1019.2mb 71f
4:54 10 13 mph 1019.1mb 71f
4:48 9 11 mph 1019.1mb 71f
4:42 10 13 mph 1019.1mb 71f
4:36 10 11 mph 1019.3mb 71f
4:30 10 13 mph 1019.2mb 71f
4:24 9 10 mph 1019.2mb 71f
4:18 13 14 mph 1019.2mb 71f
4:12 10 13 mph 1019.2mb 71f
4:06 11 14 mph 1019.2mb 71f
4:00 11 14 mph 1019.2mb 71f
3:54 13 15 mph 1019.2mb 71f
3:48 13 14 mph 1019.3mb 72f
3:42 11 14 mph 1019.4mb 72f
3:36 13 15 mph 1019.5mb 72f
3:30 13 15 mph 1019.6mb 71f
3:24 10 13 mph 1019.7mb 71f
3:18 14 16 mph 1019.7mb 71f
3:12 11 14 mph 1019.7mb 71f
3:06 10 14 mph 1019.7mb 71f
3:00 10 13 mph 1019.7mb 71f
2:54 11 14 mph 1019.7mb 71f
2:48 10 13 mph 1019.8mb 71f
2:42 10 13 mph 1019.8mb 71f
2:36 11 15 mph 1019.8mb 71f
2:30 13 15 mph 1019.8mb 71f
2:24 13 15 mph 1019.8mb 71f
2:18 13 15 mph 1019.8mb 71f
2:12 9 13 mph 1019.8mb 72f
2:06 13 15 mph 1019.7mb 72f
2:00 11 14 mph 1019.6mb 72f
1:54 9 11 mph 1019.7mb 72f
1:48 11 14 mph 1019.8mb 72f
1:42 10 14 mph 1019.9mb 73f
1:36 8 10 mph 1019.8mb 73f
1:30 10 14 mph 1019.9mb 73f
1:24 9 13 mph 1019.9mb 73f
1:18 11 14 mph 1019.9mb 73f
1:12 11 15 mph 1019.9mb 73f
1:06 10 14 mph 1020mb 73f
1:00 11 14 mph 1020mb 73f
12:54 9 11 mph 1020mb 73f
12:48 10 14 mph 1020.1mb 73f
12:42 9 14 mph 1020.2mb 73f
12:36 10 13 mph 1020.3mb 73f
12:30 9 13 mph 1020.3mb 73f
12:24 10 14 mph 1020.3mb 73f
12:18 13 15 mph 1020.4mb 72f
12:12 9 11 mph 1020.4mb 72f
12:06 11 15 mph 1020.3mb 72f
12:00 10 14 mph 1020.4mb 72f
11:54 11 14 mph 1020.4mb 72f
11:48 10 13 mph 1020.3mb 72f
11:42 11 14 mph 1020.3mb 72f
11:36 7 9 mph 1020.3mb 72f
11:30 8 10 mph 1020.4mb 72f
11:24 9 10 mph 1020.5mb 72f
11:18 8 10 mph 1020.5mb 72f
11:12 9 10 mph 1020.4mb 72f
11:06 8 9 mph 1020.4mb 71f
11:00 9 10 mph 1020.4mb 71f
10:54 9 11 mph 1020.3mb 71f
10:48 8 10 mph 1020.3mb 71f
10:42 10 11 mph 1020.2mb 71f
10:36 8 9 mph 1020.3mb 70f
10:30 9 10 mph 1020.3mb 70f
10:24 9 10 mph 1020.4mb 70f
10:18 8 9 mph 1020.4mb 70f
10:12 10 13 mph 1020.3mb 70f
10:06 8 10 mph 1020.4mb 70f
10:00 8 9 mph 1020.5mb 70f
9:54 8 9 mph 1020.5mb 70f
9:48 9 11 mph 1020.4mb 70f
9:42 7 9 mph 1020.5mb 70f
9:36 8 10 mph 1020.4mb 70f
9:30 7 9 mph 1020.6mb 70f
9:24 7 9 mph 1020.5mb 70f
9:18 8 9 mph 1020.5mb 70f
9:12 8 10 mph 1020.5mb 70f
9:06 7 9 mph 1020.4mb 70f
9:00 7 9 mph 1020.3mb 70f
8:54 7 9 mph 1020.3mb 70f
8:48 8 10 mph 1020.2mb 70f
8:42 9 10 mph 1020.1mb 70f
8:36 8 10 mph 1020.1mb 70f
8:30 8 9 mph 1020.1mb 70f
8:24 7 9 mph 1020.1mb 70f
8:18 7 8 mph 1020.2mb 69f
8:12 6 7 mph 1020.2mb 69f
8:06 7 8 mph 1020.1mb 69f
8:00 7 7 mph 1020.1mb 69f
7:54 6 8 mph 1020.1mb 69f
7:48 6 7 mph 1020.1mb 69f
7:42 6 8 mph 1020.1mb 69f
7:36 7 8 mph 1020.2mb 69f
7:30 7 8 mph 1020.2mb 69f
7:24 7 7 mph 1020.2mb 69f
7:18 7 8 mph 1020.2mb 69f
7:12 7 9 mph 1020.1mb 69f
7:06 8 9 mph 1020.1mb 69f
7:00 7 8 mph 1020mb 69f
6:54 8 9 mph 1020mb 69f
6:48 7 8 mph 1020.1mb 69f
6:42 7 8 mph 1020.1mb 69f
6:36 7 9 mph 1020mb 69f
6:30 7 9 mph 1019.9mb 69f
6:24 6 7 mph 1019.9mb 69f
6:18 6 8 mph 1019.9mb 69f
6:12 8 9 mph 1019.8mb 69f
6:06 8 9 mph 1019.8mb 69f
6:00 8 9 mph 1019.7mb 69f
5:54 7 9 mph 1019.8mb 69f
5:48 7 8 mph 1019.8mb 69f
5:42 6 7 mph 1019.8mb 69f
5:36 7 8 mph 1019.7mb 69f
5:30 7 8 mph 1019.7mb 69f
5:24 7 7 mph 1019.7mb 70f
5:18 6 6 mph 1019.7mb 70f
5:12 5 7 mph 1019.7mb 70f
5:06 5 6 mph 1019.6mb 70f
5:00 5 6 mph 1019.7mb 70f
4:54 3 6 mph 1019.7mb 70f
4:48 5 5 mph 1019.7mb 70f
4:42 5 6 mph 1019.6mb 70f
4:36 5 6 mph 1019.6mb 70f
4:30 3 5 mph 1019.6mb 70f
4:24 3 5 mph 1019.4mb 70f
4:18 6 6 mph 1019.3mb 70f
4:12 5 6 mph 1019.4mb 70f
4:06 5 6 mph 1019.4mb 70f
4:00 5 6 mph 1019.3mb 70f
3:54 6 6 mph 1019.4mb 70f
3:48 5 6 mph 1019.5mb 70f
3:42 2 3 mph 1019.6mb 70f
3:36  -  1 mph 1019.8mb 70f
3:30 1 2 mph 1019.7mb 70f
3:24 1 2 mph 1019.6mb 70f
3:18 2 3 mph 1019.5mb 70f
3:12 3 5 mph 1019.4mb 70f
3:06 3 3 mph 1019.4mb 70f
3:00 2 2 mph 1019.4mb 70f
2:54 1 2 mph 1019.4mb 70f
2:48 2 5 mph 1019.4mb -
2:42 5 5 mph 1019.4mb -
2:36 6 7 mph 1019.4mb -
2:30 3 6 mph 1019.5mb 70f
2:24 3 5 mph 1019.7mb 70f
2:18 3 5 mph 1019.7mb 70f
2:12 3 6 mph 1019.7mb 70f
2:06 5 7 mph 1019.8mb 69f
2:00 6 7 mph 1019.8mb 70f
1:54 6 7 mph 1019.8mb 70f
1:48 6 8 mph 1020mb 70f
1:42 7 9 mph 1020mb 70f
1:36 8 9 mph 1019.9mb 70f
1:30 6 8 mph 1019.9mb 70f
1:24 2 3 mph 1019.9mb 70f
1:18 1 2 mph 1020mb 70f
1:12  -  1 mph 1020mb 70f
1:06 1 2 mph 1019.9mb 70f
1:00  -  1 mph 1019.9mb 70f
12:54 1 2 mph 1019.8mb 70f
12:48 2 3 mph 1019.9mb 70f
12:42 2 3 mph 1019.8mb 70f
12:36 5 5 mph 1019.9mb 70f
12:30 6 6 mph 1019.9mb 70f
12:24 6 7 mph 1019.9mb 70f
12:18 6 7 mph 1019.9mb 70f
12:12 6 7 mph 1019.9mb 70f
12:06 5 6 mph 1020mb 70f
12:00 3 6 mph 1020mb 70f
dom 09/17 11:54 3 5 mph 1020mb 70f
11:48  -  2 mph 1020mb 70f
11:42 1 2 mph 1020mb 70f
11:36 3 5 mph 1020mb 70f
11:30 1 2 mph 1020mb 70f
11:24 1 3 mph 1020mb 70f
11:18 2 3 mph 1020.1mb 70f
11:12 2 3 mph 1020.1mb 70f
11:06 1 2 mph 1020.1mb 70f
11:00 3 5 mph 1020mb 70f
10:54  -  2 mph 1020mb 70f
10:48  -  1 mph 1020mb 70f
10:42 2 2 mph 1020.1mb 70f
10:36 1 2 mph 1020.1mb 70f
10:30  -  2 mph 1020mb 70f
10:24 1 2 mph 1020mb 70f
10:18 2 3 mph 1020.1mb 70f
10:12  -  1 mph 1020.1mb 70f
10:06 2 5 mph 1020mb 69f
10:00 2 3 mph 1020.1mb 70f
9:54  -  2 mph 1020.1mb 70f
9:48 1 2 mph 1020.1mb 70f
9:42 2 3 mph 1020.2mb 70f
9:36 3 6 mph 1020.2mb 70f
9:30 2 3 mph 1020.1mb 70f
9:24  -  2 mph 1020.1mb 69f
9:18 1 2 mph 1020mb 69f
9:12 2 6 mph 1020.1mb 69f
9:06 2 5 mph 1020.1mb 69f
9:00 3 5 mph 1020mb 69f
8:54 5 7 mph 1020mb 69f
8:48 3 6 mph 1020mb 69f
8:42 3 5 mph 1020mb 69f
8:36 3 5 mph 1019.9mb 68f
8:30 3 6 mph 1019.9mb 68f
8:24 3 6 mph 1019.9mb 68f
8:18 5 7 mph 1019.9mb 68f
8:12 7 8 mph 1019.9mb 68f
8:06 6 8 mph 1019.9mb 68f
8:00 8 10 mph 1019.9mb 68f
7:54 6 8 mph 1019.8mb 68f
7:48 6 8 mph 1019.8mb 68f
7:42 8 9 mph 1019.9mb 68f
7:36 6 8 mph 1019.8mb 68f
7:30 8 10 mph 1019.7mb 68f
7:24 6 10 mph 1019.5mb 68f
7:18 8 10 mph 1019.5mb 68f
7:12 9 11 mph 1019.5mb 68f
7:06 8 10 mph 1019.5mb 68f
7:00 9 13 mph 1019.6mb 68f
6:54 11 14 mph 1019.6mb 68f
6:48 6 11 mph 1019.8mb 68f
6:42 7 11 mph 1019.7mb 68f
6:36 11 13 mph 1019.7mb 68f
6:30 8 10 mph 1019.7mb 68f
6:24 8 13 mph 1019.7mb 68f
6:18 9 11 mph 1019.7mb 68f
6:12 11 14 mph 1019.6mb 69f
6:06 8 11 mph 1019.6mb 69f
6:00 5 8 mph 1019.7mb 69f
5:54 8 13 mph 1019.8mb 69f
5:48 7 11 mph 1019.6mb 69f
5:42 9 13 mph 1019.6mb 69f
5:36 11 15 mph 1019.5mb 69f
5:30 10 14 mph 1019.5mb 69f
5:24 9 14 mph 1019.6mb 69f
5:18 11 15 mph 1019.6mb 69f
5:12 14 16 mph 1019.7mb 69f
5:06 14 16 mph 1019.7mb 70f
5:00 13 15 mph 1019.6mb 71f
4:54 9 13 mph 1019.5mb 72f
4:48 8 11 mph 1019.6mb 72f
4:42 13 17 mph 1019.6mb 73f
4:36 13 15 mph 1019.4mb 74f
4:30 13 15 mph 1019.4mb 75f
4:24 10 14 mph 1019.4mb 75f
4:18 9 11 mph 1019.4mb 76f
4:12 8 10 mph 1019.4mb 76f
4:06 9 11 mph 1019.4mb 74f
4:00 10 13 mph 1019.6mb 75f
3:54 9 15 mph 1019.5mb 72f
3:48 15 16 mph 1019.4mb 71f
3:42 15 17 mph 1019.4mb 71f
3:36 17 18 mph 1019.4mb 72f
3:30 16 17 mph 1019.4mb 73f
3:24 14 15 mph 1019.4mb 73f
3:18 14 15 mph 1019.4mb 73f
3:12 15 17 mph 1019.5mb 73f
3:06 11 14 mph 1019.6mb 74f
3:00 11 11 mph 1019.6mb 74f
2:54 10 10 mph 1019.6mb 74f
2:48 10 10 mph 1019.6mb 74f
2:42 9 10 mph 1019.6mb 74f
2:36 10 11 mph 1019.5mb 74f
2:30 9 10 mph 1019.5mb 74f
2:24 8 9 mph 1019.5mb 74f
2:18 9 9 mph 1019.6mb 74f
2:12 9 10 mph 1019.6mb 74f
2:06 10 10 mph 1019.7mb 74f
2:00 10 11 mph 1019.7mb 74f
1:54 10 11 mph 1019.7mb 74f
1:48 11 11 mph 1019.6mb 73f
1:42 11 13 mph 1019.6mb 72f
1:36 10 10 mph 1019.7mb 71f
1:30 9 10 mph 1019.7mb 71f
1:24 9 9 mph 1019.8mb 71f
1:18 8 9 mph 1019.8mb 72f
1:12 8 9 mph 1019.8mb 72f
1:06 8 9 mph 1019.9mb 72f
1:00 7 8 mph 1020mb 71f
12:54 7 8 mph 1020.1mb 71f
12:48 7 7 mph 1020.1mb 71f
12:42 6 7 mph 1020.1mb 71f
12:36 7 7 mph 1020.1mb 70f
12:30 6 7 mph 1020.2mb 70f
12:24 6 7 mph 1020.2mb 69f
12:18 7 8 mph 1020.2mb 69f
12:12 8 8 mph 1020.4mb 69f
12:06 7 7 mph 1020.4mb 69f
12:00 6 7 mph 1020.4mb 69f
11:54 5 6 mph 1020.4mb 69f
11:48 5 6 mph 1020.4mb 69f
11:42 5 6 mph 1020.5mb 68f
11:36 5 6 mph 1020.6mb 68f
11:30 5 6 mph 1020.6mb 68f
11:24 3 5 mph 1020.6mb 67f
11:18 3 3 mph 1020.6mb 67f
11:12 1 2 mph 1020.7mb 67f
11:06 1 2 mph 1020.8mb 67f
11:00 1 2 mph 1020.7mb 67f
10:54  -  0 mph 1020.8mb 67f
10:48  -  1 mph 1020.9mb 67f
10:42 1 2 mph 1020.9mb 66f
10:36 1 2 mph 1020.9mb 66f
10:30  -  1 mph 1020.9mb 66f
10:24  -  1 mph 1021mb 66f
10:18  -  0 mph 1021mb 67f
10:12  -  2 mph 1021.1mb 67f
10:06 2 2 mph 1021.2mb 66f
10:00 3 3 mph 1021.3mb 66f
9:54 1 2 mph 1021.3mb 66f
9:48  -  1 mph 1021.3mb 65f
9:42 1 2 mph 1021.3mb 65f
9:36 2 2 mph 1021.3mb 65f
9:30 2 2 mph 1021.4mb 65f
9:24 2 3 mph 1021.4mb 65f
9:18 2 3 mph 1021.4mb 65f
9:12  -  1 mph 1021.3mb 65f
9:06 1 2 mph 1021.4mb 65f
9:00 3 5 mph 1021.3mb 65f
8:54 5 5 mph 1021.4mb 65f
8:48 5 6 mph 1021.4mb 65f